createdAt,value
2018-05-18T00:00:37.301Z,58.1
2018-05-18T00:01:27.592Z,58.1
2018-05-18T00:02:17.386Z,58.1
2018-05-18T00:03:07.795Z,58.1
2018-05-18T00:03:57.211Z,58.1
2018-05-18T00:04:47.931Z,58.1
2018-05-18T00:05:37.933Z,58.1
2018-05-18T00:06:27.696Z,58.1
2018-05-18T00:07:18.048Z,58.1
2018-05-18T00:08:07.539Z,58.1
2018-05-18T00:08:57.916Z,58
2018-05-18T00:09:47.961Z,58
2018-05-18T00:10:37.760Z,58
2018-05-18T00:11:28.359Z,58
2018-05-18T00:12:18.169Z,58
2018-05-18T00:13:08.199Z,58
2018-05-18T00:13:57.987Z,57.9
2018-05-18T00:14:48.327Z,57.9
2018-05-18T00:15:38.440Z,57.9
2018-05-18T00:16:28.740Z,57.9
2018-05-18T00:17:18.790Z,57.9
2018-05-18T00:18:08.593Z,57.9
2018-05-18T00:18:58.937Z,57.9
2018-05-18T00:19:48.443Z,57.9
2018-05-18T00:20:39.074Z,57.9
2018-05-18T00:21:28.594Z,57.9
2018-05-18T00:22:19.208Z,57.9
2018-05-18T00:23:08.974Z,57.9
2018-05-18T00:23:59.315Z,57.8
2018-05-18T00:24:49.354Z,57.8
2018-05-18T00:25:39.446Z,57.8
2018-05-18T00:26:29.210Z,57.8
2018-05-18T00:27:19.296Z,57.8
2018-05-18T00:28:09.343Z,57.8
2018-05-18T00:28:59.701Z,57.8
2018-05-18T00:34:49.882Z,57.7
2018-05-18T00:35:39.967Z,57.7
2018-05-18T00:36:30.327Z,57.7
2018-05-18T00:37:19.504Z,57.7
2018-05-18T00:38:10.146Z,57.7
2018-05-18T00:39:00.201Z,57.7
2018-05-18T00:39:50.599Z,57.6
2018-05-18T00:40:40.615Z,57.6
2018-05-18T00:41:30.687Z,57.6
2018-05-18T00:42:19.890Z,57.6
2018-05-18T00:43:10.509Z,57.6
2018-05-18T00:44:00.585Z,57.6
2018-05-18T00:44:51.004Z,57.6
2018-05-18T00:45:40.978Z,57.6
2018-05-18T00:46:31.056Z,57.6
2018-05-18T00:47:20.536Z,57.6
2018-05-18T00:48:10.877Z,57.6
2018-05-18T00:49:01.233Z,57.6
2018-05-18T00:49:50.717Z,57.6
2018-05-18T00:50:41.353Z,57.5
2018-05-18T00:51:30.965Z,57.5
2018-05-18T00:52:21.491Z,57.5
2018-05-18T00:53:11.566Z,57.5
2018-05-18T00:54:01.603Z,57.5
2018-05-18T00:54:51.126Z,57.4
2018-05-18T00:55:41.493Z,57.4
2018-05-18T00:56:30.979Z,57.4
2018-05-18T00:57:21.847Z,57.4
2018-05-18T00:58:11.678Z,57.4
2018-05-18T00:59:02.067Z,57.4
2018-05-18T00:59:51.772Z,57.4
2018-05-18T01:00:42.122Z,57.4
2018-05-18T01:01:31.913Z,57.4
2018-05-18T01:02:21.987Z,57.4
2018-05-18T01:03:12.014Z,57.4
2018-05-18T01:04:02.372Z,57.3
2018-05-18T01:04:52.437Z,57.4
2018-05-18T01:05:42.206Z,57.3
2018-05-18T01:06:32.611Z,57.3
2018-05-18T01:07:22.376Z,57.3
2018-05-18T01:08:12.153Z,57.3
2018-05-18T01:09:02.752Z,57.3
2018-05-18T01:09:52.556Z,57.3
2018-05-18T01:10:42.060Z,57.3
2018-05-18T01:11:32.967Z,57.3
2018-05-18T01:12:22.715Z,57.3
2018-05-18T01:13:13.090Z,57.3
2018-05-18T01:14:03.158Z,57.3
2018-05-18T01:14:53.199Z,57.3
2018-05-18T01:15:43.111Z,57.2
2018-05-18T01:16:33.070Z,57.2
2018-05-18T01:17:23.424Z,57.2
2018-05-18T01:18:13.193Z,57.2
2018-05-18T01:19:03.261Z,57.2
2018-05-18T01:19:53.059Z,57.2
2018-05-18T01:20:43.669Z,57.1
2018-05-18T01:21:33.737Z,57.2
2018-05-18T01:22:22.946Z,57.1
2018-05-18T01:23:13.555Z,57.1
2018-05-18T01:24:03.954Z,57.1
2018-05-18T01:24:53.424Z,57.1
2018-05-18T01:25:43.782Z,57.1
2018-05-18T01:26:33.581Z,57.1
2018-05-18T01:27:23.880Z,57.1
2018-05-18T01:28:13.963Z,57.1
2018-05-18T01:29:04.038Z,57.1
2018-05-18T01:29:54.106Z,57.1
2018-05-18T01:30:44.166Z,57.1
2018-05-18T01:31:34.198Z,57
2018-05-18T01:32:24.277Z,57.1
2018-05-18T01:33:14.655Z,57
2018-05-18T01:34:04.682Z,57
2018-05-18T01:34:54.740Z,57
2018-05-18T01:35:44.786Z,57
2018-05-18T01:36:34.870Z,57
2018-05-18T01:37:24.920Z,56.9
2018-05-18T01:38:14.785Z,56.9
2018-05-18T01:39:05.057Z,56.9
2018-05-18T01:39:54.843Z,56.9
2018-05-18T01:40:45.195Z,56.9
2018-05-18T01:41:35.260Z,56.9
2018-05-18T01:42:25.331Z,56.9
2018-05-18T01:43:15.385Z,56.9
2018-05-18T01:44:05.443Z,56.9
2018-05-18T01:44:55.224Z,56.9
2018-05-18T01:45:45.587Z,56.9
2018-05-18T01:46:35.620Z,56.9
2018-05-18T01:47:25.683Z,56.8
2018-05-18T01:48:15.768Z,56.8
2018-05-18T01:49:05.823Z,56.8
2018-05-18T01:49:55.889Z,56.8
2018-05-18T01:50:45.678Z,56.8
2018-05-18T01:51:35.472Z,56.8
2018-05-18T01:52:25.231Z,56.8
2018-05-18T01:53:15.885Z,56.8
2018-05-18T01:54:06.274Z,56.8
2018-05-18T01:54:56.017Z,56.8
2018-05-18T01:55:46.087Z,56.8
2018-05-18T01:56:35.860Z,56.8
2018-05-18T01:57:25.673Z,56.7
2018-05-18T01:58:16.254Z,56.8
2018-05-18T01:59:06.293Z,56.7
2018-05-18T01:59:56.667Z,56.7
2018-05-18T02:00:46.449Z,56.7
2018-05-18T02:01:36.543Z,56.7
2018-05-18T02:02:26.589Z,56.7
2018-05-18T02:03:16.981Z,56.6
2018-05-18T02:04:06.999Z,56.6
2018-05-18T02:04:56.486Z,56.6
2018-05-18T02:05:47.111Z,56.6
2018-05-18T02:06:36.665Z,56.6
2018-05-18T02:07:26.384Z,56.6
2018-05-18T02:08:17.002Z,56.6
2018-05-18T02:09:07.095Z,56.6
2018-05-18T02:09:57.421Z,56.6
2018-05-18T02:10:46.940Z,56.6
2018-05-18T02:11:37.283Z,56.6
2018-05-18T02:12:27.055Z,56.6
2018-05-18T02:13:17.687Z,56.6
2018-05-18T02:14:07.447Z,56.6
2018-05-18T02:14:57.548Z,56.5
2018-05-18T02:15:47.603Z,56.5
2018-05-18T02:16:37.673Z,56.5
2018-05-18T02:17:28.013Z,56.5
2018-05-18T02:18:18.091Z,56.5
2018-05-18T02:19:07.845Z,56.4
2018-05-18T02:19:57.927Z,56.4
2018-05-18T02:20:48.271Z,56.4
2018-05-18T02:21:37.780Z,56.4
2018-05-18T02:22:28.392Z,56.4
2018-05-18T02:23:18.467Z,56.4
2018-05-18T02:24:08.517Z,56.4
2018-05-18T02:24:58.293Z,56.4
2018-05-18T02:25:48.097Z,56.4
2018-05-18T02:26:38.718Z,56.4
2018-05-18T02:27:28.804Z,56.4
2018-05-18T02:28:18.543Z,56.4
2018-05-18T02:29:08.370Z,56.4
2018-05-18T02:29:58.987Z,56.4
2018-05-18T02:30:48.777Z,56.3
2018-05-18T02:31:39.118Z,56.3
2018-05-18T02:32:28.417Z,56.3
2018-05-18T02:33:18.969Z,56.3
2018-05-18T02:34:08.181Z,56.3
2018-05-18T02:34:59.095Z,56.3
2018-05-18T02:35:48.879Z,56.3
2018-05-18T02:36:38.925Z,56.3
2018-05-18T02:37:28.798Z,56.3
2018-05-18T02:38:19.058Z,56.3
2018-05-18T02:39:09.125Z,56.3
2018-05-18T02:39:59.522Z,56.3
2018-05-18T02:40:49.051Z,56.2
2018-05-18T02:41:38.798Z,56.2
2018-05-18T02:42:29.475Z,56.3
2018-05-18T02:43:19.232Z,56.2
2018-05-18T02:44:09.285Z,56.2
2018-05-18T02:44:59.646Z,56.2
2018-05-18T02:45:50.277Z,56.1
2018-05-18T02:46:39.779Z,56.1
2018-05-18T02:47:29.744Z,56.1
2018-05-18T02:48:20.085Z,56.1
2018-05-18T02:49:10.449Z,56.1
2018-05-18T02:50:00.504Z,56.1
2018-05-18T02:50:50.003Z,56.1
2018-05-18T02:51:40.083Z,56.1
2018-05-18T02:52:31.558Z,56.1
2018-05-18T02:53:20.766Z,56.1
2018-05-18T02:54:10.840Z,56.1
2018-05-18T02:55:00.867Z,56.1
2018-05-18T02:55:50.944Z,56.1
2018-05-18T02:56:41.005Z,56.1
2018-05-18T02:57:31.092Z,56
2018-05-18T02:58:21.174Z,56.1
2018-05-18T02:59:10.948Z,56
2018-05-18T03:00:01.296Z,56
2018-05-18T03:00:50.798Z,56
2018-05-18T03:01:41.417Z,56
2018-05-18T03:02:30.883Z,56
2018-05-18T03:03:21.024Z,55.9
2018-05-18T03:04:11.578Z,55.9
2018-05-18T03:05:01.675Z,55.9
2018-05-18T03:05:51.415Z,55.9
2018-05-18T03:06:41.534Z,55.9
2018-05-18T03:07:31.845Z,55.9
2018-05-18T03:08:21.663Z,55.9
2018-05-18T03:09:11.419Z,55.9
2018-05-18T03:10:01.727Z,55.9
2018-05-18T03:10:52.111Z,55.9
2018-05-18T03:11:42.159Z,55.9
2018-05-18T03:12:32.234Z,55.9
2018-05-18T03:13:22.026Z,55.8
2018-05-18T03:14:12.325Z,55.8
2018-05-18T03:15:02.490Z,55.8
2018-05-18T03:15:52.210Z,55.8
2018-05-18T03:16:42.270Z,55.8
2018-05-18T03:17:32.595Z,55.8
2018-05-18T03:18:22.395Z,55.8
2018-05-18T03:19:12.777Z,55.8
2018-05-18T03:20:02.524Z,55.8
2018-05-18T03:20:52.088Z,55.8
2018-05-18T03:21:42.361Z,55.8
2018-05-18T03:22:32.483Z,55.8
2018-05-18T03:23:22.057Z,55.8
2018-05-18T03:24:12.603Z,55.6
2018-05-18T03:25:02.676Z,55.6
2018-05-18T03:25:52.248Z,55.5
2018-05-18T03:26:42.800Z,55.4
2018-05-18T03:27:32.305Z,55.4
2018-05-18T03:28:22.958Z,55.4
2018-05-18T03:29:12.460Z,55.4
2018-05-18T03:30:03.583Z,55.4
2018-05-18T03:30:53.672Z,55.4
2018-05-18T03:31:43.688Z,55.4
2018-05-18T03:32:33.737Z,55.4
2018-05-18T03:33:23.895Z,55.4
2018-05-18T03:34:13.691Z,55.4
2018-05-18T03:35:03.653Z,55.3
2018-05-18T03:35:54.035Z,55.3
2018-05-18T03:36:43.792Z,55.3
2018-05-18T03:37:33.837Z,55.3
2018-05-18T03:38:24.174Z,55.3
2018-05-18T03:39:14.244Z,55.3
2018-05-18T03:40:04.052Z,55.3
2018-05-18T03:40:54.364Z,55.3
2018-05-18T03:41:44.165Z,55.3
2018-05-18T03:42:34.509Z,55.3
2018-05-18T03:43:24.006Z,55.3
2018-05-18T03:44:14.188Z,55.3
2018-05-18T03:45:04.689Z,55.2
2018-05-18T03:45:54.836Z,55.3
2018-05-18T03:46:44.272Z,55.2
2018-05-18T03:47:34.609Z,55.2
2018-05-18T03:48:24.682Z,55.2
2018-05-18T03:49:14.462Z,55.2
2018-05-18T03:50:05.088Z,55.2
2018-05-18T03:50:54.866Z,55.2
2018-05-18T03:51:45.225Z,55.1
2018-05-18T03:52:35.278Z,55.1
2018-05-18T03:53:25.322Z,55.1
2018-05-18T03:54:15.429Z,55.1
2018-05-18T03:55:05.188Z,55.1
2018-05-18T03:55:55.000Z,55.1
2018-05-18T03:56:45.302Z,55.1
2018-05-18T03:57:35.654Z,55.1
2018-05-18T03:58:25.434Z,55.1
2018-05-18T03:59:15.795Z,55.1
2018-05-18T04:00:05.880Z,55.1
2018-05-18T04:00:55.951Z,55.1
2018-05-18T04:01:45.720Z,55.1
2018-05-18T04:02:36.049Z,55.1
2018-05-18T04:03:26.114Z,55
2018-05-18T04:04:16.160Z,55
2018-05-18T04:05:05.959Z,55
2018-05-18T04:05:56.019Z,55
2018-05-18T04:06:45.786Z,55
2018-05-18T04:07:36.444Z,55
2018-05-18T04:08:26.197Z,54.9
2018-05-18T04:09:16.558Z,54.9
2018-05-18T04:10:06.612Z,54.9
2018-05-18T04:10:56.092Z,54.9
2018-05-18T04:11:46.731Z,54.9
2018-05-18T04:12:36.826Z,54.9
2018-05-18T04:13:26.034Z,54.9
2018-05-18T04:14:16.980Z,54.9
2018-05-18T04:15:06.145Z,54.9
2018-05-18T04:15:56.778Z,54.9
2018-05-18T04:16:47.119Z,54.9
2018-05-18T04:17:36.947Z,54.9
2018-05-18T04:18:27.258Z,54.9
2018-05-18T04:19:17.295Z,54.8
2018-05-18T04:20:07.373Z,54.8
2018-05-18T04:20:57.476Z,54.8
2018-05-18T04:21:47.224Z,54.8
2018-05-18T04:22:37.297Z,54.8
2018-05-18T04:23:27.047Z,54.8
2018-05-18T04:24:17.708Z,54.8
2018-05-18T04:25:07.775Z,54.8
2018-05-18T04:25:57.873Z,54.8
2018-05-18T04:26:47.892Z,54.8
2018-05-18T04:27:37.936Z,54.8
2018-05-18T04:28:28.030Z,54.8
2018-05-18T04:29:17.807Z,54.8
2018-05-18T04:30:08.448Z,54.8
2018-05-18T04:30:57.922Z,54.8
2018-05-18T04:31:47.990Z,54.7
2018-05-18T04:32:38.336Z,54.7
2018-05-18T04:33:28.477Z,54.7
2018-05-18T04:34:18.174Z,54.7
2018-05-18T04:35:08.517Z,54.7
2018-05-18T04:35:58.579Z,54.7
2018-05-18T04:36:48.648Z,54.7
2018-05-18T04:37:38.517Z,54.7
2018-05-18T04:38:28.233Z,54.6
2018-05-18T04:39:18.284Z,54.6
2018-05-18T04:40:08.931Z,54.6
2018-05-18T04:40:58.986Z,54.6
2018-05-18T04:41:48.774Z,54.6
2018-05-18T04:42:38.558Z,54.6
2018-05-18T04:43:29.141Z,54.6
2018-05-18T04:44:19.310Z,54.6
2018-05-18T04:45:09.297Z,54.6
2018-05-18T04:45:59.082Z,54.6
2018-05-18T04:46:48.576Z,54.6
2018-05-18T15:07:43.226Z,66.8
2018-05-18T15:08:33.318Z,66.9
2018-05-18T15:09:22.848Z,66.8
2018-05-18T15:10:13.504Z,66.8
2018-05-18T15:11:04.142Z,66.8
2018-05-18T15:11:53.320Z,66.8
2018-05-18T15:12:42.634Z,66.8
2018-05-18T15:13:33.461Z,66.8
2018-05-18T15:14:23.521Z,66.8
2018-05-18T15:15:13.276Z,66.8
2018-05-18T15:16:03.622Z,66.8
2018-05-18T15:16:53.423Z,66.8
2018-05-18T15:17:43.307Z,66.8
2018-05-18T15:18:33.837Z,66.8
2018-05-18T15:19:23.603Z,66.8
2018-05-18T15:20:14.280Z,66.8
2018-05-18T15:21:03.448Z,66.8
2018-05-18T15:21:53.799Z,66.8
2018-05-18T15:22:44.467Z,66.8
2018-05-18T15:23:34.283Z,66.7
2018-05-18T15:24:24.250Z,66.7
2018-05-18T15:25:14.373Z,66.8
2018-05-18T15:26:04.417Z,66.7
2018-05-18T15:26:54.220Z,66.7
2018-05-18T15:27:44.612Z,66.7
2018-05-18T15:28:34.662Z,66.7
2018-05-18T15:29:24.721Z,66.7
2018-05-18T15:30:15.092Z,66.7
2018-05-18T15:31:03.742Z,66.7
2018-05-18T15:31:54.125Z,66.6
2018-05-18T15:32:44.394Z,66.6
2018-05-18T15:33:34.811Z,66.6
2018-05-18T15:34:24.795Z,66.6
2018-05-18T15:35:15.443Z,66.6
2018-05-18T15:36:04.911Z,66.6
2018-05-18T15:36:55.230Z,66.6
2018-05-18T15:37:45.047Z,66.6
2018-05-18T15:38:35.134Z,66.6
2018-05-18T15:39:25.318Z,66.6
2018-05-18T15:40:15.858Z,66.6
2018-05-18T15:41:05.584Z,66.6
2018-05-18T15:41:55.447Z,66.6
2018-05-18T15:42:45.843Z,66.6
2018-05-18T15:43:35.768Z,66.6
2018-05-18T15:44:25.911Z,66.6
2018-05-18T15:45:15.643Z,66.6
2018-05-18T15:46:06.325Z,66.6
2018-05-18T15:46:56.322Z,66.5
2018-05-18T15:47:45.530Z,66.5
2018-05-18T15:48:36.460Z,66.5
2018-05-18T15:49:26.957Z,66.5
2018-05-18T15:50:16.281Z,66.5
2018-05-18T15:51:07.000Z,66.5
2018-05-18T15:51:56.170Z,66.5
2018-05-18T15:52:46.762Z,66.5
2018-05-18T15:53:36.269Z,66.5
2018-05-18T15:54:26.929Z,66.5
2018-05-18T15:55:16.931Z,66.4
2018-05-18T15:56:06.717Z,66.4
2018-05-18T15:56:56.521Z,66.4
2018-05-18T15:57:47.113Z,66.4
2018-05-18T15:58:36.134Z,66.4
2018-05-18T15:59:26.749Z,66.4
2018-05-18T16:00:17.313Z,66.4
2018-05-18T16:01:06.834Z,66.4
2018-05-18T16:01:57.182Z,66.4
2018-05-18T16:02:47.214Z,66.4
2018-05-18T16:03:37.003Z,66.4
2018-05-18T16:04:27.025Z,66.4
2018-05-18T16:05:17.160Z,66.4
2018-05-18T16:06:07.502Z,66.4
2018-05-18T16:06:57.272Z,66.4
2018-05-18T16:07:47.887Z,66.4
2018-05-18T16:08:37.696Z,66.4
2018-05-18T16:09:28.034Z,66.4
2018-05-18T16:10:17.518Z,66.4
2018-05-18T16:11:07.586Z,66.3
2018-05-18T16:11:58.200Z,66.3
2018-05-18T16:12:47.650Z,66.3
2018-05-18T16:13:38.413Z,66.3
2018-05-18T16:14:28.386Z,66.3
2018-05-18T16:15:18.251Z,66.3
2018-05-18T16:16:08.544Z,66.3
2018-05-18T16:16:58.096Z,66.3
2018-05-18T16:17:46.456Z,66.3
2018-05-18T16:18:36.804Z,66.3
2018-05-18T16:19:26.606Z,66.3
2018-05-18T16:20:16.969Z,66.3
2018-05-18T16:21:07.503Z,66.3
2018-05-18T16:21:56.769Z,66.2
2018-05-18T16:22:46.840Z,66.3
2018-05-18T16:23:36.908Z,66.2
2018-05-18T16:24:27.006Z,66.2
2018-05-18T16:25:17.310Z,66.2
2018-05-18T16:26:07.096Z,66.2
2018-05-18T16:26:57.433Z,66.2
2018-05-18T16:27:47.532Z,66.1
2018-05-18T16:28:37.558Z,66.1
2018-05-18T16:29:27.681Z,66.1
2018-05-18T16:30:17.731Z,66.1
2018-05-18T16:31:06.955Z,66.1
2018-05-18T16:31:57.258Z,66.1
2018-05-18T16:32:47.353Z,66.1
2018-05-18T16:33:37.620Z,66.1
2018-05-18T16:34:28.067Z,66.1
2018-05-18T16:35:18.080Z,66.1
2018-05-18T16:36:08.149Z,66.1
2018-05-18T16:36:58.197Z,66.1
2018-05-18T16:37:47.989Z,66.1
2018-05-18T16:38:38.065Z,66
2018-05-18T16:39:28.139Z,66
2018-05-18T16:40:18.462Z,66
2018-05-18T16:41:08.549Z,66
2018-05-18T16:41:58.574Z,66
2018-05-18T16:42:48.646Z,66
2018-05-18T16:43:38.700Z,65.9
2018-05-18T16:44:28.788Z,65.9
2018-05-18T16:45:18.824Z,65.9
2018-05-18T16:46:08.893Z,66
2018-05-18T16:46:58.688Z,65.9
2018-05-18T16:47:48.760Z,65.9
2018-05-18T16:48:39.084Z,65.9
2018-05-18T16:49:28.613Z,65.9
2018-05-18T16:50:19.236Z,65.9
2018-05-18T16:51:08.738Z,65.9
2018-05-18T16:51:58.811Z,65.9
2018-05-18T16:52:49.679Z,65.9
2018-05-18T16:53:39.479Z,65.9
2018-05-18T16:54:29.577Z,65.9
2018-05-18T16:55:19.331Z,65.9
2018-05-18T16:56:09.696Z,65.9
2018-05-18T16:56:59.478Z,65.9
2018-05-18T16:57:49.849Z,65.9
2018-05-18T16:58:39.881Z,65.9
2018-05-18T16:59:29.654Z,65.8
2018-05-18T17:00:20.005Z,65.8
2018-05-18T17:01:09.826Z,65.8
2018-05-18T17:01:59.887Z,65.8
2018-05-18T17:02:50.202Z,65.8
2018-05-18T17:03:39.982Z,65.8
2018-05-18T17:04:30.326Z,65.8
2018-05-18T17:05:19.856Z,65.8
2018-05-18T17:06:10.533Z,65.8
2018-05-18T17:07:00.504Z,65.8
2018-05-18T17:07:50.595Z,65.8
2018-05-18T17:08:40.063Z,65.8
2018-05-18T17:09:30.439Z,65.8
2018-05-18T17:10:20.763Z,65.8
2018-05-18T17:11:10.848Z,65.8
2018-05-18T17:12:00.911Z,65.8
2018-05-18T17:12:50.960Z,65.8
2018-05-18T17:13:41.015Z,65.7
2018-05-18T17:14:30.553Z,65.7
2018-05-18T17:15:20.867Z,65.7
2018-05-18T17:16:11.219Z,65.7
2018-05-18T17:17:01.000Z,65.7
2018-05-18T17:17:51.338Z,65.7
2018-05-18T17:18:41.388Z,65.7
2018-05-18T17:19:31.487Z,65.7
2018-05-18T17:20:21.522Z,65.7
2018-05-18T17:21:11.059Z,65.6
2018-05-18T17:22:01.384Z,65.6
2018-05-18T17:22:51.757Z,65.6
2018-05-18T17:23:41.529Z,65.6
2018-05-18T17:24:31.286Z,65.6
2018-05-18T17:25:21.357Z,65.6
2018-05-18T17:26:11.990Z,65.6
2018-05-18T17:27:01.761Z,65.6
2018-05-18T17:27:52.105Z,65.6
2018-05-18T17:28:42.178Z,65.6
2018-05-18T17:29:32.225Z,65.5
2018-05-18T17:30:22.334Z,65.5
2018-05-18T17:31:12.084Z,65.5
2018-05-18T17:32:02.172Z,65.5
2018-05-18T17:32:51.949Z,65.5
2018-05-18T17:33:42.553Z,65.5
2018-05-18T17:34:32.606Z,65.5
2018-05-18T17:35:22.693Z,65.4
2018-05-18T17:36:12.534Z,65.5
2018-05-18T17:37:02.821Z,65.4
2018-05-18T17:37:52.609Z,65.4
2018-05-18T17:38:42.953Z,65.4
2018-05-18T17:39:33.020Z,65.4
2018-05-18T17:40:22.810Z,65.4
2018-05-18T17:41:12.569Z,65.4
2018-05-18T17:42:03.204Z,65.4
2018-05-18T17:42:53.266Z,65.4
2018-05-18T17:43:43.154Z,65.4
2018-05-18T17:44:33.367Z,65.4
2018-05-18T17:45:23.474Z,65.4
2018-05-18T17:46:13.528Z,65.4
2018-05-18T17:47:03.312Z,65.4
2018-05-18T17:47:53.687Z,65.4
2018-05-18T17:48:43.153Z,65.4
2018-05-18T17:49:33.498Z,65.4
2018-05-18T17:50:23.552Z,65.4
2018-05-18T17:51:13.899Z,65.3
2018-05-18T17:52:03.710Z,65.3
2018-05-18T17:52:54.029Z,65.3
2018-05-18T17:53:43.817Z,65.3
2018-05-18T17:54:34.050Z,65.3
2018-05-18T17:55:23.956Z,65.3
2018-05-18T17:56:14.315Z,65.3
2018-05-18T17:57:04.412Z,65.3
2018-05-18T17:57:54.429Z,65.3
2018-05-18T17:58:44.470Z,65.3
2018-05-18T17:59:34.553Z,65.3
2018-05-18T18:00:23.802Z,65.3
2018-05-18T18:01:14.399Z,65.3
2018-05-18T18:02:04.759Z,65.3
2018-05-18T18:02:54.561Z,65.2
2018-05-18T18:03:44.606Z,65.3
2018-05-18T18:04:34.927Z,65.2
2018-05-18T18:05:25.020Z,65.2
2018-05-18T18:06:15.045Z,65.2
2018-05-18T18:07:05.103Z,65.2
2018-05-18T18:07:55.742Z,65.2
2018-05-18T18:08:44.686Z,65.1
2018-05-18T18:09:35.039Z,65.1
2018-05-18T18:10:24.848Z,65.2
2018-05-18T18:11:15.200Z,65.2
2018-05-18T18:12:05.504Z,65.1
2018-05-18T18:12:55.571Z,65.1
2018-05-18T18:13:45.404Z,65.1
2018-05-18T18:14:35.688Z,65.1
2018-05-18T18:15:25.200Z,65.1
2018-05-18T18:16:15.549Z,65.1
2018-05-18T18:17:05.443Z,65.1
2018-05-18T18:17:55.960Z,65.1
2018-05-18T18:18:46.060Z,65.1
2018-05-18T18:19:36.065Z,65.1
2018-05-18T18:20:26.137Z,65.1
2018-05-18T18:21:15.951Z,65.1
2018-05-18T18:22:06.271Z,65.1
2018-05-18T18:22:56.076Z,65.1
2018-05-18T18:23:46.145Z,65.1
2018-05-18T18:24:36.287Z,65
2018-05-18T18:25:26.585Z,65
2018-05-18T18:26:16.678Z,65
2018-05-18T18:27:06.717Z,65
2018-05-18T18:27:56.777Z,65
2018-05-18T18:28:46.319Z,65
2018-05-18T18:29:36.340Z,65
2018-05-18T18:30:26.128Z,65
2018-05-18T18:31:17.267Z,64.9
2018-05-18T18:32:06.812Z,64.9
2018-05-18T18:32:57.159Z,64.9
2018-05-18T18:33:46.935Z,64.9
2018-05-18T18:34:37.342Z,64.9
2018-05-18T18:35:27.369Z,64.9
2018-05-18T18:36:17.554Z,64.9
2018-05-18T18:37:07.537Z,64.9
2018-05-18T18:37:57.561Z,64.9
2018-05-18T18:38:47.642Z,64.9
2018-05-18T18:39:37.418Z,64.9
2018-05-18T18:40:27.409Z,64.9
2018-05-18T18:41:17.471Z,64.9
2018-05-18T18:42:07.861Z,64.9
2018-05-18T18:42:57.951Z,64.9
2018-05-18T18:43:47.698Z,64.9
2018-05-18T18:44:37.769Z,64.8
2018-05-18T18:45:27.846Z,64.8
2018-05-18T18:46:17.899Z,64.8
2018-05-18T18:47:07.991Z,64.8
2018-05-18T18:47:58.018Z,64.8
2018-05-18T18:48:48.418Z,64.8
2018-05-18T18:49:38.456Z,64.8
2018-05-18T18:50:28.779Z,64.8
2018-05-18T18:51:18.611Z,64.8
2018-05-18T18:52:08.974Z,64.8
2018-05-18T18:52:58.456Z,64.8
2018-05-18T18:53:48.750Z,64.8
2018-05-18T18:54:38.815Z,64.8
2018-05-18T18:55:28.617Z,64.8
2018-05-18T18:56:18.690Z,64.8
2018-05-18T18:57:09.071Z,64.7
2018-05-18T18:57:59.100Z,64.8
2018-05-18T18:58:48.777Z,64.7
2018-05-18T18:59:39.220Z,64.7
2018-05-18T19:00:29.026Z,64.7
2018-05-18T19:01:19.057Z,64.7
2018-05-18T19:02:09.140Z,64.7
2018-05-18T19:02:59.203Z,64.7
2018-05-18T19:03:49.257Z,64.7
2018-05-18T19:04:39.667Z,64.7
2018-05-18T19:05:29.685Z,64.7
2018-05-18T19:06:19.765Z,64.6
2018-05-18T19:07:09.524Z,64.6
2018-05-18T19:08:00.052Z,64.6
2018-05-18T19:08:49.945Z,64.6
2018-05-18T19:09:39.994Z,64.6
2018-05-18T19:10:30.094Z,64.6
2018-05-18T19:11:20.146Z,64.6
2018-05-18T19:12:10.173Z,64.6
2018-05-18T19:12:59.696Z,64.6
2018-05-18T19:13:49.775Z,64.6
2018-05-18T19:14:40.484Z,64.6
2018-05-18T19:15:30.661Z,64.6
2018-05-18T19:16:20.197Z,64.6
2018-05-18T19:17:09.986Z,64.6
2018-05-18T19:18:00.317Z,64.5
2018-05-18T19:18:50.762Z,64.5
2018-05-18T19:19:40.779Z,64.5
2018-05-18T19:20:30.544Z,64.5
2018-05-18T19:21:20.903Z,64.5
2018-05-18T19:22:10.982Z,64.5
2018-05-18T19:23:01.020Z,64.5
2018-05-18T19:23:50.568Z,64.4
2018-05-18T19:24:40.867Z,64.4
2018-05-18T19:25:30.653Z,64.5
2018-05-18T19:26:20.982Z,64.4
2018-05-18T19:27:11.071Z,64.4
2018-05-18T19:28:01.125Z,64.4
2018-05-18T19:28:51.182Z,64.4
2018-05-18T19:29:41.472Z,64.4
2018-05-18T19:30:31.356Z,64.4
2018-05-18T19:31:21.711Z,64.4
2018-05-18T19:32:11.742Z,64.4
2018-05-18T19:33:01.804Z,64.4
2018-05-18T19:33:51.573Z,64.4
2018-05-18T19:34:41.960Z,64.4
2018-05-18T19:35:31.677Z,64.4
2018-05-18T19:36:22.074Z,64.4
2018-05-18T19:37:11.810Z,64.4
2018-05-18T19:38:01.910Z,64.4
2018-05-18T19:38:51.672Z,64.3
2018-05-18T19:39:42.015Z,64.3
2018-05-18T19:40:32.118Z,64.3
2018-05-18T19:41:22.119Z,64.3
2018-05-18T19:42:12.519Z,64.3
2018-05-18T19:43:02.554Z,64.3
2018-05-18T19:43:52.147Z,64.3
2018-05-18T19:44:42.413Z,64.3
2018-05-18T19:45:32.460Z,64.3
2018-05-18T19:46:22.242Z,64.3
2018-05-18T19:47:12.302Z,64.3
2018-05-18T19:48:02.682Z,64.3
2018-05-18T19:48:52.992Z,64.3
2018-05-18T19:49:43.093Z,64.3
2018-05-18T19:50:33.122Z,64.3
2018-05-18T19:51:22.941Z,64.2
2018-05-18T19:52:13.297Z,64.3
2018-05-18T19:53:03.080Z,64.2
2018-05-18T19:53:53.404Z,64.2
2018-05-18T19:54:43.481Z,64.2
2018-05-18T19:55:33.519Z,64.2
2018-05-18T19:56:23.572Z,64.2
2018-05-18T19:57:13.788Z,64.2
2018-05-18T19:58:03.441Z,64.2
2018-05-18T19:58:53.244Z,64.1
2018-05-18T19:59:43.864Z,64.1
2018-05-18T20:00:33.909Z,64.1
2018-05-18T20:01:23.992Z,64.1
2018-05-18T20:02:13.755Z,64.1
2018-05-18T20:03:03.802Z,64.1
2018-05-18T20:03:53.859Z,64.1
2018-05-18T20:04:43.949Z,64.1
2018-05-18T20:05:34.323Z,64.1
2018-05-18T20:06:24.090Z,64.1
2018-05-18T20:07:13.916Z,64.1
2018-05-18T20:08:04.502Z,64.1
2018-05-18T20:08:54.544Z,64.1
2018-05-18T20:09:44.343Z,64.1
2018-05-18T20:10:34.647Z,64.1
2018-05-18T20:11:24.702Z,64.1
2018-05-18T20:12:14.424Z,64.1
2018-05-18T20:13:04.596Z,64
2018-05-18T20:13:54.361Z,64
2018-05-18T20:14:44.950Z,64
2018-05-18T20:15:35.036Z,64
2018-05-18T20:16:24.523Z,64
2018-05-18T20:17:14.889Z,64
2018-05-18T20:18:04.941Z,64
2018-05-18T20:18:54.729Z,63.9
2018-05-18T20:19:45.484Z,63.9
2018-05-18T20:20:35.408Z,63.9
2018-05-18T20:21:25.186Z,63.9
2018-05-18T20:22:15.258Z,63.9
2018-05-18T20:23:05.364Z,63.9
2018-05-18T20:23:55.703Z,63.9
2018-05-18T20:24:45.458Z,63.9
2018-05-18T20:25:35.506Z,63.9
2018-05-18T20:26:25.868Z,63.9
2018-05-18T20:27:15.644Z,63.9
2018-05-18T20:28:05.729Z,63.9
2018-05-18T20:28:56.078Z,63.9
2018-05-18T20:29:45.864Z,63.9
2018-05-18T20:30:36.197Z,63.9
2018-05-18T20:31:26.250Z,63.9
2018-05-18T20:32:16.034Z,63.9
2018-05-18T20:33:06.367Z,63.8
2018-05-18T20:33:55.692Z,63.8
2018-05-18T20:34:46.231Z,63.8
2018-05-18T20:35:36.277Z,63.8
2018-05-18T20:36:26.647Z,63.8
2018-05-18T20:37:16.685Z,63.8
2018-05-18T20:38:06.354Z,63.8
2018-05-18T20:38:56.256Z,63.8
2018-05-18T20:39:46.630Z,63.8
2018-05-18T20:40:36.385Z,63.8
2018-05-18T20:41:26.759Z,63.8
2018-05-18T20:42:17.097Z,63.8
2018-05-18T20:43:06.902Z,63.8
2018-05-18T20:43:56.950Z,63.8
2018-05-18T20:44:47.337Z,63.7
2018-05-18T20:45:36.517Z,63.8
2018-05-18T20:46:27.119Z,63.7
2018-05-18T20:47:17.477Z,63.7
2018-05-18T20:48:07.258Z,63.7
2018-05-18T20:48:57.589Z,63.7
2018-05-18T20:49:47.686Z,63.7
2018-05-18T20:50:37.513Z,63.7
2018-05-18T20:51:27.517Z,63.7
2018-05-18T20:52:17.589Z,63.6
2018-05-18T20:53:07.931Z,63.6
2018-05-18T20:53:57.754Z,63.6
2018-05-18T20:54:48.045Z,63.6
2018-05-18T20:55:38.129Z,63.6
2018-05-18T20:56:28.156Z,63.6
2018-05-18T20:57:18.302Z,63.6
2018-05-18T20:58:08.290Z,63.6
2018-05-18T20:58:58.435Z,63.6
2018-05-18T20:59:48.437Z,63.6
2018-05-18T21:00:38.199Z,63.6
2018-05-18T21:01:28.290Z,63.6
2018-05-18T21:02:18.354Z,63.6
2018-05-18T21:03:08.461Z,63.6
2018-05-18T21:03:58.473Z,63.6
2018-05-18T21:04:48.548Z,63.6
2018-05-18T21:05:38.904Z,63.5
2018-05-18T21:06:28.930Z,63.5
2018-05-18T21:07:18.726Z,63.5
2018-05-18T21:08:09.072Z,63.5
2018-05-18T21:08:58.859Z,63.5
2018-05-18T21:09:49.194Z,63.5
2018-05-18T21:10:39.031Z,63.5
2018-05-18T21:11:29.328Z,63.5
2018-05-18T21:12:18.268Z,63.4
2018-05-18T21:13:09.168Z,63.5
2018-05-18T21:13:59.557Z,63.5
2018-05-18T21:14:49.666Z,63.4
2018-05-18T21:15:39.365Z,63.4
2018-05-18T21:16:29.732Z,63.4
2018-05-18T21:17:19.531Z,63.4
2018-05-18T21:18:09.552Z,63.4
2018-05-18T21:18:59.912Z,63.4
2018-05-18T21:19:49.438Z,63.4
2018-05-18T21:20:40.063Z,63.4
2018-05-18T21:21:30.100Z,63.4
2018-05-18T21:22:20.205Z,63.4
2018-05-18T21:23:09.955Z,63.4
2018-05-18T21:23:59.730Z,63.4
2018-05-18T21:24:50.390Z,63.3
2018-05-18T21:25:40.141Z,63.4
2018-05-18T21:26:30.228Z,63.4
2018-05-18T21:27:20.280Z,63.4
2018-05-18T21:28:10.610Z,63.3
2018-05-18T21:29:00.145Z,63.3
2018-05-18T21:29:49.878Z,63.3
2018-05-18T21:30:40.825Z,63.3
2018-05-18T21:31:30.580Z,63.3
2018-05-18T21:32:20.945Z,63.3
2018-05-18T21:33:11.010Z,63.3
2018-05-18T21:34:00.527Z,63.3